sensor_id;sensor_type;location;lat;lon;timestamp;P1;durP1;ratioP1;P2;durP2;ratioP2
75504;SDS011;64085;54.974;73.410;2023-09-08T11:33:26;8.57;;;3.72;;
75504;SDS011;64085;54.974;73.410;2023-09-08T11:35:53;8.40;;;3.03;;
75504;SDS011;64085;54.974;73.410;2023-09-08T11:38:39;4.93;;;2.72;;
75504;SDS011;64085;54.974;73.410;2023-09-08T11:41:04;4.90;;;2.63;;
75504;SDS011;64085;54.974;73.410;2023-09-08T11:43:30;9.85;;;3.25;;
75504;SDS011;64085;54.974;73.410;2023-09-08T11:45:58;15.45;;;4.53;;
75504;SDS011;64085;54.974;73.410;2023-09-08T11:48:24;25.42;;;5.78;;
75504;SDS011;64085;54.974;73.410;2023-09-08T11:50:52;14.20;;;4.20;;
75504;SDS011;64085;54.974;73.410;2023-09-08T11:53:21;22.33;;;5.60;;
75504;SDS011;64085;54.974;73.410;2023-09-08T11:55:46;16.00;;;4.80;;
75504;SDS011;64085;54.974;73.410;2023-09-08T11:58:12;13.05;;;3.13;;
75504;SDS011;64085;54.974;73.410;2023-09-08T12:00:38;23.17;;;5.97;;
75504;SDS011;64085;54.974;73.410;2023-09-08T12:03:09;31.58;;;6.75;;
75504;SDS011;64085;54.974;73.410;2023-09-08T12:05:34;13.50;;;3.92;;
75504;SDS011;64085;54.974;73.410;2023-09-08T12:08:03;5.68;;;3.00;;
75504;SDS011;64085;54.974;73.410;2023-09-08T12:10:30;4.72;;;2.10;;
75504;SDS011;64085;54.974;73.410;2023-09-08T12:12:55;4.97;;;2.25;;
75504;SDS011;64085;54.974;73.410;2023-09-08T12:18:04;3.42;;;2.30;;
75504;SDS011;64085;54.974;73.410;2023-09-08T12:20:30;6.50;;;2.13;;
75504;SDS011;64085;54.974;73.410;2023-09-08T12:22:57;6.47;;;2.55;;
75504;SDS011;64085;54.974;73.410;2023-09-08T12:25:22;7.90;;;3.17;;
75504;SDS011;64085;54.974;73.410;2023-09-08T12:27:49;3.95;;;2.30;;
75504;SDS011;64085;54.974;73.410;2023-09-08T12:30:19;7.95;;;3.20;;
75504;SDS011;64085;54.974;73.410;2023-09-08T12:32:45;10.35;;;3.72;;
75504;SDS011;64085;54.974;73.410;2023-09-08T12:35:21;4.45;;;2.70;;
75504;SDS011;64085;54.974;73.410;2023-09-08T12:37:47;3.30;;;1.63;;
75504;SDS011;64085;54.974;73.410;2023-09-08T12:40:13;10.02;;;2.75;;
75504;SDS011;64085;54.974;73.410;2023-09-08T12:42:40;14.27;;;4.40;;
75504;SDS011;64085;54.974;73.410;2023-09-08T12:45:06;6.65;;;3.40;;
75504;SDS011;64085;54.974;73.410;2023-09-08T12:47:31;9.20;;;3.40;;
75504;SDS011;64085;54.974;73.410;2023-09-08T12:49:57;4.82;;;2.58;;
75504;SDS011;64085;54.974;73.410;2023-09-08T12:52:22;8.68;;;4.05;;
75504;SDS011;64085;54.974;73.410;2023-09-08T12:54:47;9.45;;;4.75;;
75504;SDS011;64085;54.974;73.410;2023-09-08T12:57:13;18.27;;;5.93;;
75504;SDS011;64085;54.974;73.410;2023-09-08T12:59:38;11.70;;;6.18;;
75504;SDS011;64085;54.974;73.410;2023-09-08T13:02:04;17.15;;;9.60;;
75504;SDS011;64085;54.974;73.410;2023-09-08T13:04:29;32.45;;;14.52;;
75504;SDS011;64085;54.974;73.410;2023-09-08T13:06:55;32.50;;;14.93;;
75504;SDS011;64085;54.974;73.410;2023-09-08T13:09:22;30.38;;;12.05;;
75504;SDS011;64085;54.974;73.410;2023-09-08T13:11:48;14.65;;;7.00;;
75504;SDS011;64085;54.974;73.410;2023-09-08T13:14:13;23.63;;;8.98;;
75504;SDS011;64085;54.974;73.410;2023-09-08T13:16:39;13.23;;;8.07;;
75504;SDS011;64085;54.974;73.410;2023-09-08T13:19:04;20.48;;;13.23;;
75504;SDS011;64085;54.974;73.410;2023-09-08T13:21:30;27.88;;;14.63;;
75504;SDS011;64085;54.974;73.410;2023-09-08T13:23:56;21.90;;;14.05;;
75504;SDS011;64085;54.974;73.410;2023-09-08T13:26:21;30.70;;;19.20;;
75504;SDS011;64085;54.974;73.410;2023-09-08T13:28:46;25.90;;;12.85;;
75504;SDS011;64085;54.974;73.410;2023-09-08T13:31:12;35.20;;;16.17;;
75504;SDS011;64085;54.974;73.410;2023-09-08T13:33:37;34.03;;;18.45;;
75504;SDS011;64085;54.974;73.410;2023-09-08T13:36:03;33.47;;;20.55;;
75504;SDS011;64085;54.974;73.410;2023-09-08T13:38:28;32.63;;;19.40;;
75504;SDS011;64085;54.974;73.410;2023-09-08T13:40:53;37.75;;;18.48;;
75504;SDS011;64085;54.974;73.410;2023-09-08T13:43:19;47.50;;;26.63;;
75504;SDS011;64085;54.974;73.410;2023-09-08T13:45:45;23.50;;;15.88;;
75504;SDS011;64085;54.974;73.410;2023-09-08T13:48:10;19.48;;;10.93;;
75504;SDS011;64085;54.974;73.410;2023-09-08T13:50:37;14.38;;;7.68;;
75504;SDS011;64085;54.974;73.410;2023-09-08T13:53:03;14.93;;;7.53;;
75504;SDS011;64085;54.974;73.410;2023-09-08T13:55:31;20.95;;;9.65;;
75504;SDS011;64085;54.974;73.410;2023-09-08T13:57:56;17.08;;;7.68;;
75504;SDS011;64085;54.974;73.410;2023-09-08T14:00:22;26.98;;;14.30;;
75504;SDS011;64085;54.974;73.410;2023-09-08T14:02:47;18.30;;;9.88;;
75504;SDS011;64085;54.974;73.410;2023-09-08T14:05:13;22.77;;;11.43;;
75504;SDS011;64085;54.974;73.410;2023-09-08T14:07:38;16.40;;;7.93;;
75504;SDS011;64085;54.974;73.410;2023-09-08T14:10:04;18.50;;;8.95;;
75504;SDS011;64085;54.974;73.410;2023-09-08T14:12:33;17.38;;;8.18;;
75504;SDS011;64085;54.974;73.410;2023-09-08T14:14:58;17.98;;;7.88;;
75504;SDS011;64085;54.974;73.410;2023-09-08T14:17:24;17.13;;;11.45;;
75504;SDS011;64085;54.974;73.410;2023-09-08T14:19:50;20.67;;;10.32;;
75504;SDS011;64085;54.974;73.410;2023-09-08T14:22:15;21.52;;;12.57;;
75504;SDS011;64085;54.974;73.410;2023-09-08T14:24:40;24.95;;;11.98;;
75504;SDS011;64085;54.974;73.410;2023-09-08T14:27:06;16.70;;;7.95;;
75504;SDS011;64085;54.974;73.410;2023-09-08T14:29:33;19.10;;;8.43;;
75504;SDS011;64085;54.974;73.410;2023-09-08T14:31:58;13.35;;;8.50;;
75504;SDS011;64085;54.974;73.410;2023-09-08T14:34:23;16.35;;;8.35;;
75504;SDS011;64085;54.974;73.410;2023-09-08T14:36:49;12.18;;;7.60;;
75504;SDS011;64085;54.974;73.410;2023-09-08T14:39:14;11.55;;;5.95;;
75504;SDS011;64085;54.974;73.410;2023-09-08T14:41:41;13.23;;;5.18;;
75504;SDS011;64085;54.974;73.410;2023-09-08T14:44:07;10.80;;;5.40;;
75504;SDS011;64085;54.974;73.410;2023-09-08T14:46:32;11.43;;;6.20;;
75504;SDS011;64085;54.974;73.410;2023-09-08T14:48:57;7.40;;;3.83;;
75504;SDS011;64085;54.974;73.410;2023-09-08T14:51:23;6.05;;;2.72;;
75504;SDS011;64085;54.974;73.410;2023-09-08T14:53:49;5.55;;;3.10;;
75504;SDS011;64085;54.974;73.410;2023-09-08T14:56:14;6.07;;;3.63;;
75504;SDS011;64085;54.974;73.410;2023-09-08T14:58:40;5.47;;;3.83;;
75504;SDS011;64085;54.974;73.410;2023-09-08T15:01:05;4.78;;;2.63;;
75504;SDS011;64085;54.974;73.410;2023-09-08T15:03:33;8.10;;;3.92;;
75504;SDS011;64085;54.974;73.410;2023-09-08T15:05:59;5.88;;;3.83;;
75504;SDS011;64085;54.974;73.410;2023-09-08T15:08:27;7.30;;;3.75;;
75504;SDS011;64085;54.974;73.410;2023-09-08T15:10:53;3.58;;;2.90;;
75504;SDS011;64085;54.974;73.410;2023-09-08T15:13:19;3.80;;;2.53;;
75504;SDS011;64085;54.974;73.410;2023-09-08T15:15:44;4.07;;;2.65;;
75504;SDS011;64085;54.974;73.410;2023-09-08T15:18:10;7.22;;;3.30;;
75504;SDS011;64085;54.974;73.410;2023-09-08T15:20:35;2.85;;;1.90;;
75504;SDS011;64085;54.974;73.410;2023-09-08T15:23:01;4.10;;;2.78;;
75504;SDS011;64085;54.974;73.410;2023-09-08T15:25:26;5.25;;;3.03;;
75504;SDS011;64085;54.974;73.410;2023-09-08T15:27:51;4.47;;;2.65;;
75504;SDS011;64085;54.974;73.410;2023-09-08T15:30:18;4.65;;;2.35;;
75504;SDS011;64085;54.974;73.410;2023-09-08T15:32:43;3.25;;;2.95;;
75504;SDS011;64085;54.974;73.410;2023-09-08T15:35:10;6.32;;;2.90;;
75504;SDS011;64085;54.974;73.410;2023-09-08T15:37:35;6.47;;;3.35;;
75504;SDS011;64085;54.974;73.410;2023-09-08T15:40:01;5.63;;;2.90;;
75504;SDS011;64085;54.974;73.410;2023-09-08T15:42:28;5.75;;;3.72;;
75504;SDS011;64085;54.974;73.410;2023-09-08T15:44:54;5.13;;;2.95;;
75504;SDS011;64085;54.974;73.410;2023-09-08T15:47:19;8.07;;;3.70;;
75504;SDS011;64085;54.974;73.410;2023-09-08T15:49:45;7.15;;;2.63;;
75504;SDS011;64085;54.974;73.410;2023-09-08T15:52:10;5.80;;;3.45;;
75504;SDS011;64085;54.974;73.410;2023-09-08T15:54:36;3.75;;;2.35;;
75504;SDS011;64085;54.974;73.410;2023-09-08T15:57:01;6.13;;;3.50;;
75504;SDS011;64085;54.974;73.410;2023-09-08T15:59:28;6.25;;;3.67;;
75504;SDS011;64085;54.974;73.410;2023-09-08T16:01:54;5.20;;;2.88;;
75504;SDS011;64085;54.974;73.410;2023-09-08T16:04:19;3.88;;;2.25;;
75504;SDS011;64085;54.974;73.410;2023-09-08T16:06:45;5.90;;;2.50;;
75504;SDS011;64085;54.974;73.410;2023-09-08T16:09:12;7.15;;;3.20;;
75504;SDS011;64085;54.974;73.410;2023-09-08T16:11:38;10.05;;;3.20;;
75504;SDS011;64085;54.974;73.410;2023-09-08T16:14:03;5.10;;;2.70;;
75504;SDS011;64085;54.974;73.410;2023-09-08T16:16:29;3.45;;;2.05;;
75504;SDS011;64085;54.974;73.410;2023-09-08T16:18:54;4.68;;;2.80;;
75504;SDS011;64085;54.974;73.410;2023-09-08T16:21:20;7.07;;;2.97;;
75504;SDS011;64085;54.974;73.410;2023-09-08T16:23:45;5.65;;;2.63;;
75504;SDS011;64085;54.974;73.410;2023-09-08T16:26:10;5.28;;;2.75;;
75504;SDS011;64085;54.974;73.410;2023-09-08T16:28:36;6.10;;;2.08;;
75504;SDS011;64085;54.974;73.410;2023-09-08T16:31:02;4.20;;;2.63;;
75504;SDS011;64085;54.974;73.410;2023-09-08T16:33:28;4.82;;;2.35;;
75504;SDS011;64085;54.974;73.410;2023-09-08T16:35:53;1.92;;;1.30;;
75504;SDS011;64085;54.974;73.410;2023-09-08T16:38:19;3.95;;;3.10;;
75504;SDS011;64085;54.974;73.410;2023-09-08T16:40:44;2.30;;;1.50;;
75504;SDS011;64085;54.974;73.410;2023-09-08T16:43:10;6.95;;;2.60;;
75504;SDS011;64085;54.974;73.410;2023-09-08T16:45:36;3.15;;;2.60;;
75504;SDS011;64085;54.974;73.410;2023-09-08T16:48:01;7.20;;;2.70;;
75504;SDS011;64085;54.974;73.410;2023-09-08T16:50:27;2.75;;;1.80;;
75504;SDS011;64085;54.974;73.410;2023-09-08T16:52:52;4.15;;;1.80;;
75504;SDS011;64085;54.974;73.410;2023-09-08T16:55:17;5.25;;;2.78;;
75504;SDS011;64085;54.974;73.410;2023-09-08T16:57:43;4.70;;;2.30;;
75504;SDS011;64085;54.974;73.410;2023-09-08T17:00:09;3.67;;;2.22;;
75504;SDS011;64085;54.974;73.410;2023-09-08T17:02:35;3.55;;;1.83;;
75504;SDS011;64085;54.974;73.410;2023-09-08T17:05:00;3.53;;;1.98;;
75504;SDS011;64085;54.974;73.410;2023-09-08T17:07:26;5.00;;;2.42;;
75504;SDS011;64085;54.974;73.410;2023-09-08T17:09:52;4.65;;;2.92;;
75504;SDS011;64085;54.974;73.410;2023-09-08T17:12:20;4.35;;;3.03;;
75504;SDS011;64085;54.974;73.410;2023-09-08T17:14:45;3.63;;;1.80;;
75504;SDS011;64085;54.974;73.410;2023-09-08T17:17:11;6.13;;;3.90;;
75504;SDS011;64085;54.974;73.410;2023-09-08T17:19:36;5.03;;;2.60;;
75504;SDS011;64085;54.974;73.410;2023-09-08T17:22:02;4.75;;;2.97;;
75504;SDS011;64085;54.974;73.410;2023-09-08T17:24:28;12.70;;;3.35;;
75504;SDS011;64085;54.974;73.410;2023-09-08T17:26:56;4.65;;;2.72;;
75504;SDS011;64085;54.974;73.410;2023-09-08T17:29:22;4.43;;;2.15;;
75504;SDS011;64085;54.974;73.410;2023-09-08T17:31:47;6.35;;;2.63;;
75504;SDS011;64085;54.974;73.410;2023-09-08T17:34:19;3.50;;;2.35;;
75504;SDS011;64085;54.974;73.410;2023-09-08T17:36:45;4.45;;;2.50;;
75504;SDS011;64085;54.974;73.410;2023-09-08T17:39:11;8.25;;;2.75;;
75504;SDS011;64085;54.974;73.410;2023-09-08T17:41:36;4.65;;;2.95;;
75504;SDS011;64085;54.974;73.410;2023-09-08T17:44:01;1.98;;;1.58;;
75504;SDS011;64085;54.974;73.410;2023-09-08T17:46:27;6.43;;;3.30;;
75504;SDS011;64085;54.974;73.410;2023-09-08T17:48:52;4.32;;;2.40;;
75504;SDS011;64085;54.974;73.410;2023-09-08T17:51:18;6.13;;;3.45;;
75504;SDS011;64085;54.974;73.410;2023-09-08T17:53:43;4.30;;;2.45;;
75504;SDS011;64085;54.974;73.410;2023-09-08T17:56:09;5.65;;;3.35;;
75504;SDS011;64085;54.974;73.410;2023-09-08T17:58:34;4.72;;;3.65;;
75504;SDS011;64085;54.974;73.410;2023-09-08T18:00:59;7.47;;;3.67;;
75504;SDS011;64085;54.974;73.410;2023-09-08T18:03:25;7.63;;;4.80;;
75504;SDS011;64085;54.974;73.410;2023-09-08T18:05:50;6.05;;;3.45;;
75504;SDS011;64085;54.974;73.410;2023-09-08T18:08:16;6.25;;;4.03;;
75504;SDS011;64085;54.974;73.410;2023-09-08T18:10:41;6.78;;;3.78;;
75504;SDS011;64085;54.974;73.410;2023-09-08T18:13:07;6.65;;;3.85;;
75504;SDS011;64085;54.974;73.410;2023-09-08T18:15:32;10.23;;;5.70;;
75504;SDS011;64085;54.974;73.410;2023-09-08T18:17:57;6.28;;;4.03;;
75504;SDS011;64085;54.974;73.410;2023-09-08T18:20:23;6.47;;;3.78;;
75504;SDS011;64085;54.974;73.410;2023-09-08T18:22:48;7.22;;;4.88;;
75504;SDS011;64085;54.974;73.410;2023-09-08T18:25:16;10.93;;;3.95;;
75504;SDS011;64085;54.974;73.410;2023-09-08T18:27:42;5.72;;;3.35;;
75504;SDS011;64085;54.974;73.410;2023-09-08T18:30:10;8.75;;;4.95;;
75504;SDS011;64085;54.974;73.410;2023-09-08T18:32:36;5.22;;;3.45;;
75504;SDS011;64085;54.974;73.410;2023-09-08T18:35:01;3.92;;;2.72;;
75504;SDS011;64085;54.974;73.410;2023-09-08T18:37:27;8.27;;;3.25;;
75504;SDS011;64085;54.974;73.410;2023-09-08T18:39:53;3.97;;;1.90;;
75504;SDS011;64085;54.974;73.410;2023-09-08T18:42:18;6.30;;;3.30;;
75504;SDS011;64085;54.974;73.410;2023-09-08T18:44:44;2.90;;;1.95;;
75504;SDS011;64085;54.974;73.410;2023-09-08T18:47:09;5.40;;;3.03;;
75504;SDS011;64085;54.974;73.410;2023-09-08T18:49:35;5.10;;;3.35;;
75504;SDS011;64085;54.974;73.410;2023-09-08T18:52:00;7.88;;;4.18;;
75504;SDS011;64085;54.974;73.410;2023-09-08T18:54:25;4.22;;;3.20;;
75504;SDS011;64085;54.974;73.410;2023-09-08T18:56:54;5.32;;;2.70;;
75504;SDS011;64085;54.974;73.410;2023-09-08T18:59:23;3.15;;;1.67;;
75504;SDS011;64085;54.974;73.410;2023-09-08T19:01:48;5.07;;;3.33;;
75504;SDS011;64085;54.974;73.410;2023-09-08T19:04:13;6.75;;;3.53;;
75504;SDS011;64085;54.974;73.410;2023-09-08T19:06:39;6.05;;;3.17;;
75504;SDS011;64085;54.974;73.410;2023-09-08T19:09:04;5.88;;;3.90;;
75504;SDS011;64085;54.974;73.410;2023-09-08T19:11:30;4.90;;;2.63;;
75504;SDS011;64085;54.974;73.410;2023-09-08T19:13:55;3.35;;;2.08;;
75504;SDS011;64085;54.974;73.410;2023-09-08T19:16:21;5.57;;;3.10;;
75504;SDS011;64085;54.974;73.410;2023-09-08T19:18:46;5.50;;;3.97;;
75504;SDS011;64085;54.974;73.410;2023-09-08T19:21:11;5.30;;;3.78;;
75504;SDS011;64085;54.974;73.410;2023-09-08T19:23:37;5.28;;;2.97;;
75504;SDS011;64085;54.974;73.410;2023-09-08T19:26:05;3.92;;;2.83;;
75504;SDS011;64085;54.974;73.410;2023-09-08T19:28:32;6.15;;;3.33;;
75504;SDS011;64085;54.974;73.410;2023-09-08T19:30:57;4.28;;;2.78;;
75504;SDS011;64085;54.974;73.410;2023-09-08T19:33:23;7.32;;;3.40;;
75504;SDS011;64085;54.974;73.410;2023-09-08T19:35:49;3.75;;;2.55;;
75504;SDS011;64085;54.974;73.410;2023-09-08T19:38:15;4.22;;;2.28;;
75504;SDS011;64085;54.974;73.410;2023-09-08T19:40:42;5.35;;;2.95;;
75504;SDS011;64085;54.974;73.410;2023-09-08T19:43:08;8.20;;;3.03;;
75504;SDS011;64085;54.974;73.410;2023-09-08T19:45:35;2.72;;;1.83;;
75504;SDS011;64085;54.974;73.410;2023-09-08T19:48:01;3.55;;;2.22;;
75504;SDS011;64085;54.974;73.410;2023-09-08T19:50:26;4.85;;;2.45;;
75504;SDS011;64085;54.974;73.410;2023-09-08T19:52:52;4.53;;;2.80;;
75504;SDS011;64085;54.974;73.410;2023-09-08T19:55:17;2.90;;;2.30;;
75504;SDS011;64085;54.974;73.410;2023-09-08T19:57:42;5.13;;;3.35;;
75504;SDS011;64085;54.974;73.410;2023-09-08T20:00:08;3.40;;;2.50;;
75504;SDS011;64085;54.974;73.410;2023-09-08T20:02:34;4.60;;;3.05;;
75504;SDS011;64085;54.974;73.410;2023-09-08T20:04:59;3.80;;;2.50;;
75504;SDS011;64085;54.974;73.410;2023-09-08T20:07:24;4.72;;;3.17;;
75504;SDS011;64085;54.974;73.410;2023-09-08T20:09:50;4.40;;;3.40;;
75504;SDS011;64085;54.974;73.410;2023-09-08T20:12:15;3.90;;;2.28;;
75504;SDS011;64085;54.974;73.410;2023-09-08T20:14:41;7.88;;;2.95;;
75504;SDS011;64085;54.974;73.410;2023-09-08T20:17:06;4.25;;;3.13;;
75504;SDS011;64085;54.974;73.410;2023-09-08T20:19:31;5.05;;;3.00;;
75504;SDS011;64085;54.974;73.410;2023-09-08T20:21:57;4.55;;;2.35;;
75504;SDS011;64085;54.974;73.410;2023-09-08T20:24:23;6.85;;;4.32;;
75504;SDS011;64085;54.974;73.410;2023-09-08T20:26:48;7.13;;;3.15;;
75504;SDS011;64085;54.974;73.410;2023-09-08T20:29:13;6.72;;;3.30;;
75504;SDS011;64085;54.974;73.410;2023-09-08T20:31:39;3.70;;;2.17;;
75504;SDS011;64085;54.974;73.410;2023-09-08T20:34:05;4.25;;;3.17;;
75504;SDS011;64085;54.974;73.410;2023-09-08T20:36:30;5.20;;;3.28;;
75504;SDS011;64085;54.974;73.410;2023-09-08T20:38:56;5.40;;;3.45;;
75504;SDS011;64085;54.974;73.410;2023-09-08T20:41:21;4.32;;;2.42;;
75504;SDS011;64085;54.974;73.410;2023-09-08T20:43:47;2.40;;;1.48;;
75504;SDS011;64085;54.974;73.410;2023-09-08T20:46:12;4.47;;;2.50;;
75504;SDS011;64085;54.974;73.410;2023-09-08T20:48:38;3.00;;;2.67;;
75504;SDS011;64085;54.974;73.410;2023-09-08T20:51:05;5.07;;;3.05;;
75504;SDS011;64085;54.974;73.410;2023-09-08T20:53:31;5.22;;;3.00;;
75504;SDS011;64085;54.974;73.410;2023-09-08T20:55:57;5.28;;;3.28;;
75504;SDS011;64085;54.974;73.410;2023-09-08T20:58:23;6.07;;;2.92;;
75504;SDS011;64085;54.974;73.410;2023-09-08T21:00:54;5.68;;;2.50;;
75504;SDS011;64085;54.974;73.410;2023-09-08T21:03:19;4.00;;;2.20;;
75504;SDS011;64085;54.974;73.410;2023-09-08T21:05:45;5.45;;;3.00;;
75504;SDS011;64085;54.974;73.410;2023-09-08T21:08:10;4.50;;;3.40;;
75504;SDS011;64085;54.974;73.410;2023-09-08T21:10:36;3.60;;;2.08;;
75504;SDS011;64085;54.974;73.410;2023-09-08T21:13:01;10.88;;;2.83;;
75504;SDS011;64085;54.974;73.410;2023-09-08T21:15:27;5.05;;;3.22;;
75504;SDS011;64085;54.974;73.410;2023-09-08T21:17:52;8.45;;;3.47;;
75504;SDS011;64085;54.974;73.410;2023-09-08T21:20:17;5.10;;;2.40;;
75504;SDS011;64085;54.974;73.410;2023-09-08T21:22:43;6.90;;;3.97;;
75504;SDS011;64085;54.974;73.410;2023-09-08T21:25:08;4.68;;;3.50;;
75504;SDS011;64085;54.974;73.410;2023-09-08T21:27:34;7.00;;;3.80;;
75504;SDS011;64085;54.974;73.410;2023-09-08T21:29:59;6.30;;;3.67;;
75504;SDS011;64085;54.974;73.410;2023-09-08T21:32:25;7.22;;;4.25;;
75504;SDS011;64085;54.974;73.410;2023-09-08T21:34:53;6.40;;;4.03;;
75504;SDS011;64085;54.974;73.410;2023-09-08T21:37:19;6.45;;;3.83;;
75504;SDS011;64085;54.974;73.410;2023-09-08T21:39:45;5.45;;;3.92;;
75504;SDS011;64085;54.974;73.410;2023-09-08T21:42:10;6.50;;;3.85;;
75504;SDS011;64085;54.974;73.410;2023-09-08T21:44:36;6.70;;;2.90;;
75504;SDS011;64085;54.974;73.410;2023-09-08T21:47:02;5.03;;;3.85;;
75504;SDS011;64085;54.974;73.410;2023-09-08T21:49:30;5.28;;;3.10;;
75504;SDS011;64085;54.974;73.410;2023-09-08T21:51:55;4.68;;;3.08;;
75504;SDS011;64085;54.974;73.410;2023-09-08T21:54:21;3.65;;;2.25;;
75504;SDS011;64085;54.974;73.410;2023-09-08T21:56:46;3.78;;;2.65;;
75504;SDS011;64085;54.974;73.410;2023-09-08T21:59:12;5.57;;;3.10;;
75504;SDS011;64085;54.974;73.410;2023-09-08T22:01:37;3.78;;;2.88;;
75504;SDS011;64085;54.974;73.410;2023-09-08T22:04:03;3.92;;;2.80;;
75504;SDS011;64085;54.974;73.410;2023-09-08T22:06:28;3.42;;;2.72;;
75504;SDS011;64085;54.974;73.410;2023-09-08T22:08:54;3.97;;;2.00;;
75504;SDS011;64085;54.974;73.410;2023-09-08T22:11:19;5.00;;;3.20;;
75504;SDS011;64085;54.974;73.410;2023-09-08T22:13:44;1.77;;;1.67;;
75504;SDS011;64085;54.974;73.410;2023-09-08T22:16:10;2.20;;;1.33;;
75504;SDS011;64085;54.974;73.410;2023-09-08T22:18:36;4.40;;;2.80;;
75504;SDS011;64085;54.974;73.410;2023-09-08T22:21:01;4.28;;;2.47;;
75504;SDS011;64085;54.974;73.410;2023-09-08T22:23:28;3.28;;;2.38;;
75504;SDS011;64085;54.974;73.410;2023-09-08T22:25:54;3.25;;;2.05;;
75504;SDS011;64085;54.974;73.410;2023-09-08T22:28:19;3.13;;;1.70;;
75504;SDS011;64085;54.974;73.410;2023-09-08T22:30:44;3.25;;;2.15;;
75504;SDS011;64085;54.974;73.410;2023-09-08T22:33:11;2.85;;;2.05;;
75504;SDS011;64085;54.974;73.410;2023-09-08T22:35:36;5.13;;;2.80;;
75504;SDS011;64085;54.974;73.410;2023-09-08T22:38:02;4.05;;;2.05;;
75504;SDS011;64085;54.974;73.410;2023-09-08T22:40:28;3.53;;;2.58;;
75504;SDS011;64085;54.974;73.410;2023-09-08T22:42:53;4.15;;;2.53;;
75504;SDS011;64085;54.974;73.410;2023-09-08T22:45:19;3.25;;;2.28;;
75504;SDS011;64085;54.974;73.410;2023-09-08T22:47:44;3.47;;;2.35;;
75504;SDS011;64085;54.974;73.410;2023-09-08T22:50:10;3.88;;;2.42;;
75504;SDS011;64085;54.974;73.410;2023-09-08T22:52:42;3.58;;;2.30;;
75504;SDS011;64085;54.974;73.410;2023-09-08T22:55:07;3.03;;;2.70;;
75504;SDS011;64085;54.974;73.410;2023-09-08T22:57:33;3.42;;;2.05;;
75504;SDS011;64085;54.974;73.410;2023-09-08T22:59:59;6.25;;;2.45;;
75504;SDS011;64085;54.974;73.410;2023-09-08T23:02:24;3.78;;;2.60;;
75504;SDS011;64085;54.974;73.410;2023-09-08T23:04:50;3.60;;;2.20;;
75504;SDS011;64085;54.974;73.410;2023-09-08T23:07:15;3.92;;;2.38;;
75504;SDS011;64085;54.974;73.410;2023-09-08T23:09:41;5.18;;;2.45;;
75504;SDS011;64085;54.974;73.410;2023-09-08T23:12:06;4.00;;;2.53;;
75504;SDS011;64085;54.974;73.410;2023-09-08T23:14:32;4.55;;;3.00;;
75504;SDS011;64085;54.974;73.410;2023-09-08T23:16:57;3.55;;;2.20;;
75504;SDS011;64085;54.974;73.410;2023-09-08T23:19:23;4.97;;;2.97;;
75504;SDS011;64085;54.974;73.410;2023-09-08T23:21:48;3.42;;;2.65;;
75504;SDS011;64085;54.974;73.410;2023-09-08T23:24:13;3.78;;;2.05;;
75504;SDS011;64085;54.974;73.410;2023-09-08T23:26:39;5.18;;;3.67;;
75504;SDS011;64085;54.974;73.410;2023-09-08T23:29:04;2.78;;;1.88;;
75504;SDS011;64085;54.974;73.410;2023-09-08T23:31:30;5.30;;;2.22;;
75504;SDS011;64085;54.974;73.410;2023-09-08T23:33:56;2.38;;;2.00;;
75504;SDS011;64085;54.974;73.410;2023-09-08T23:36:21;4.10;;;3.25;;
75504;SDS011;64085;54.974;73.410;2023-09-08T23:38:47;7.40;;;2.50;;
75504;SDS011;64085;54.974;73.410;2023-09-08T23:41:13;4.22;;;2.13;;
75504;SDS011;64085;54.974;73.410;2023-09-08T23:43:38;3.72;;;2.47;;
75504;SDS011;64085;54.974;73.410;2023-09-08T23:46:04;5.95;;;3.58;;
75504;SDS011;64085;54.974;73.410;2023-09-08T23:48:29;3.78;;;2.80;;
75504;SDS011;64085;54.974;73.410;2023-09-08T23:50:56;4.25;;;2.17;;
75504;SDS011;64085;54.974;73.410;2023-09-08T23:53:22;2.42;;;1.73;;
75504;SDS011;64085;54.974;73.410;2023-09-08T23:55:47;5.53;;;3.42;;
75504;SDS011;64085;54.974;73.410;2023-09-08T23:58:14;7.97;;;3.25;;
